sensor_id;sensor_type;location;lat;lon;timestamp;P1;durP1;ratioP1;P2;durP2;ratioP2
42964;SDS011;28604;51.204;22.552;2022-11-13T00:01:25;48.95;;;25.08;;
42964;SDS011;28604;51.204;22.552;2022-11-13T00:04:10;53.17;;;26.63;;
42964;SDS011;28604;51.204;22.552;2022-11-13T00:06:55;52.50;;;26.15;;
42964;SDS011;28604;51.204;22.552;2022-11-13T00:09:39;56.92;;;28.13;;
42964;SDS011;28604;51.204;22.552;2022-11-13T00:12:23;54.60;;;28.27;;
42964;SDS011;28604;51.204;22.552;2022-11-13T00:15:08;57.22;;;27.75;;
42964;SDS011;28604;51.204;22.552;2022-11-13T00:17:53;56.33;;;28.35;;
42964;SDS011;28604;51.204;22.552;2022-11-13T00:20:37;48.30;;;26.30;;
42964;SDS011;28604;51.204;22.552;2022-11-13T00:23:21;56.30;;;28.27;;
42964;SDS011;28604;51.204;22.552;2022-11-13T00:26:10;60.75;;;28.63;;
42964;SDS011;28604;51.204;22.552;2022-11-13T00:28:58;55.25;;;27.38;;
42964;SDS011;28604;51.204;22.552;2022-11-13T00:31:44;54.40;;;28.98;;
42964;SDS011;28604;51.204;22.552;2022-11-13T00:34:28;55.35;;;28.83;;
42964;SDS011;28604;51.204;22.552;2022-11-13T00:37:13;55.42;;;28.70;;
42964;SDS011;28604;51.204;22.552;2022-11-13T00:39:57;56.60;;;28.73;;
42964;SDS011;28604;51.204;22.552;2022-11-13T00:42:42;53.60;;;28.08;;
42964;SDS011;28604;51.204;22.552;2022-11-13T00:45:26;61.88;;;29.85;;
42964;SDS011;28604;51.204;22.552;2022-11-13T00:48:11;59.67;;;30.67;;
42964;SDS011;28604;51.204;22.552;2022-11-13T00:50:55;59.22;;;29.10;;
42964;SDS011;28604;51.204;22.552;2022-11-13T00:53:40;57.47;;;27.73;;
42964;SDS011;28604;51.204;22.552;2022-11-13T00:56:24;62.00;;;30.55;;
42964;SDS011;28604;51.204;22.552;2022-11-13T00:59:09;61.83;;;31.20;;
42964;SDS011;28604;51.204;22.552;2022-11-13T01:01:53;74.30;;;35.53;;
42964;SDS011;28604;51.204;22.552;2022-11-13T01:04:37;71.10;;;34.63;;
42964;SDS011;28604;51.204;22.552;2022-11-13T01:07:21;71.43;;;36.70;;
42964;SDS011;28604;51.204;22.552;2022-11-13T01:10:06;75.70;;;37.28;;
42964;SDS011;28604;51.204;22.552;2022-11-13T01:12:51;77.32;;;36.75;;
42964;SDS011;28604;51.204;22.552;2022-11-13T01:15:39;81.20;;;38.20;;
42964;SDS011;28604;51.204;22.552;2022-11-13T01:18:25;80.55;;;39.88;;
42964;SDS011;28604;51.204;22.552;2022-11-13T01:21:11;77.53;;;37.92;;
42964;SDS011;28604;51.204;22.552;2022-11-13T01:23:57;79.40;;;38.88;;
42964;SDS011;28604;51.204;22.552;2022-11-13T01:26:42;82.60;;;39.78;;
42964;SDS011;28604;51.204;22.552;2022-11-13T01:29:26;74.53;;;37.75;;
42964;SDS011;28604;51.204;22.552;2022-11-13T01:32:11;80.80;;;37.60;;
42964;SDS011;28604;51.204;22.552;2022-11-13T01:34:55;82.10;;;38.83;;
42964;SDS011;28604;51.204;22.552;2022-11-13T01:37:39;77.88;;;38.28;;
42964;SDS011;28604;51.204;22.552;2022-11-13T01:40:24;81.90;;;39.25;;
42964;SDS011;28604;51.204;22.552;2022-11-13T01:43:28;78.03;;;38.28;;
42964;SDS011;28604;51.204;22.552;2022-11-13T01:46:40;72.97;;;36.72;;
42964;SDS011;28604;51.204;22.552;2022-11-13T01:49:33;75.40;;;35.50;;
42964;SDS011;28604;51.204;22.552;2022-11-13T01:52:24;74.32;;;36.17;;
42964;SDS011;28604;51.204;22.552;2022-11-13T01:55:12;73.43;;;37.38;;
42964;SDS011;28604;51.204;22.552;2022-11-13T01:57:58;70.43;;;35.08;;
42964;SDS011;28604;51.204;22.552;2022-11-13T02:00:45;64.65;;;33.15;;
42964;SDS011;28604;51.204;22.552;2022-11-13T02:03:30;71.25;;;34.88;;
42964;SDS011;28604;51.204;22.552;2022-11-13T02:06:15;77.45;;;34.38;;
42964;SDS011;28604;51.204;22.552;2022-11-13T02:09:00;72.07;;;36.25;;
42964;SDS011;28604;51.204;22.552;2022-11-13T02:11:45;75.88;;;35.92;;
42964;SDS011;28604;51.204;22.552;2022-11-13T02:14:29;76.30;;;35.15;;
42964;SDS011;28604;51.204;22.552;2022-11-13T02:17:16;72.35;;;35.33;;
42964;SDS011;28604;51.204;22.552;2022-11-13T02:20:05;75.63;;;35.00;;
42964;SDS011;28604;51.204;22.552;2022-11-13T02:22:55;69.10;;;33.08;;
42964;SDS011;28604;51.204;22.552;2022-11-13T02:25:58;74.82;;;35.92;;
42964;SDS011;28604;51.204;22.552;2022-11-13T02:28:44;80.93;;;36.08;;
42964;SDS011;28604;51.204;22.552;2022-11-13T02:31:28;70.65;;;34.78;;
42964;SDS011;28604;51.204;22.552;2022-11-13T02:34:12;84.60;;;37.50;;
42964;SDS011;28604;51.204;22.552;2022-11-13T02:36:56;73.97;;;35.40;;
42964;SDS011;28604;51.204;22.552;2022-11-13T02:39:41;76.57;;;37.08;;
42964;SDS011;28604;51.204;22.552;2022-11-13T02:42:25;79.88;;;38.28;;
42964;SDS011;28604;51.204;22.552;2022-11-13T02:45:10;78.80;;;37.20;;
42964;SDS011;28604;51.204;22.552;2022-11-13T02:47:54;77.85;;;36.65;;
42964;SDS011;28604;51.204;22.552;2022-11-13T02:50:39;77.53;;;33.97;;
42964;SDS011;28604;51.204;22.552;2022-11-13T02:53:24;68.68;;;32.97;;
42964;SDS011;28604;51.204;22.552;2022-11-13T02:56:08;66.32;;;32.50;;
42964;SDS011;28604;51.204;22.552;2022-11-13T02:58:53;66.15;;;31.50;;
42964;SDS011;28604;51.204;22.552;2022-11-13T03:01:37;67.55;;;32.38;;
42964;SDS011;28604;51.204;22.552;2022-11-13T03:04:22;68.57;;;32.22;;
42964;SDS011;28604;51.204;22.552;2022-11-13T03:07:07;63.03;;;30.38;;
42964;SDS011;28604;51.204;22.552;2022-11-13T03:09:51;66.22;;;30.95;;
42964;SDS011;28604;51.204;22.552;2022-11-13T03:12:35;64.55;;;30.95;;
42964;SDS011;28604;51.204;22.552;2022-11-13T03:15:20;64.45;;;31.35;;
42964;SDS011;28604;51.204;22.552;2022-11-13T03:18:05;70.93;;;30.75;;
42964;SDS011;28604;51.204;22.552;2022-11-13T03:21:15;64.15;;;32.05;;
42964;SDS011;28604;51.204;22.552;2022-11-13T03:24:00;66.22;;;31.02;;
42964;SDS011;28604;51.204;22.552;2022-11-13T03:26:44;69.50;;;30.73;;
42964;SDS011;28604;51.204;22.552;2022-11-13T03:29:29;71.07;;;32.42;;
42964;SDS011;28604;51.204;22.552;2022-11-13T03:32:13;65.65;;;32.63;;
42964;SDS011;28604;51.204;22.552;2022-11-13T03:34:58;68.57;;;31.58;;
42964;SDS011;28604;51.204;22.552;2022-11-13T03:37:42;70.18;;;32.67;;
42964;SDS011;28604;51.204;22.552;2022-11-13T03:40:27;63.42;;;28.60;;
42964;SDS011;28604;51.204;22.552;2022-11-13T03:43:11;65.18;;;31.30;;
42964;SDS011;28604;51.204;22.552;2022-11-13T03:45:56;66.88;;;30.15;;
42964;SDS011;28604;51.204;22.552;2022-11-13T03:48:40;69.18;;;31.42;;
42964;SDS011;28604;51.204;22.552;2022-11-13T03:51:25;67.47;;;30.88;;
42964;SDS011;28604;51.204;22.552;2022-11-13T03:54:09;62.60;;;29.75;;
42964;SDS011;28604;51.204;22.552;2022-11-13T03:56:54;54.80;;;28.98;;
42964;SDS011;28604;51.204;22.552;2022-11-13T03:59:38;58.17;;;27.02;;
42964;SDS011;28604;51.204;22.552;2022-11-13T04:02:23;56.70;;;27.08;;
42964;SDS011;28604;51.204;22.552;2022-11-13T04:05:07;54.42;;;27.38;;
42964;SDS011;28604;51.204;22.552;2022-11-13T04:07:52;62.45;;;28.55;;
42964;SDS011;28604;51.204;22.552;2022-11-13T04:10:37;61.30;;;28.65;;
42964;SDS011;28604;51.204;22.552;2022-11-13T04:13:22;63.97;;;29.77;;
42964;SDS011;28604;51.204;22.552;2022-11-13T04:16:06;61.47;;;29.67;;
42964;SDS011;28604;51.204;22.552;2022-11-13T04:18:51;67.35;;;30.52;;
42964;SDS011;28604;51.204;22.552;2022-11-13T04:21:35;65.55;;;30.60;;
42964;SDS011;28604;51.204;22.552;2022-11-13T04:24:20;64.18;;;29.42;;
42964;SDS011;28604;51.204;22.552;2022-11-13T04:27:04;62.47;;;29.45;;
42964;SDS011;28604;51.204;22.552;2022-11-13T04:29:48;66.25;;;29.35;;
42964;SDS011;28604;51.204;22.552;2022-11-13T04:32:33;62.22;;;28.27;;
42964;SDS011;28604;51.204;22.552;2022-11-13T04:35:17;56.25;;;27.27;;
42964;SDS011;28604;51.204;22.552;2022-11-13T04:38:02;64.50;;;28.13;;
42964;SDS011;28604;51.204;22.552;2022-11-13T04:40:50;57.60;;;27.65;;
42964;SDS011;28604;51.204;22.552;2022-11-13T04:43:54;61.17;;;28.02;;
42964;SDS011;28604;51.204;22.552;2022-11-13T04:46:38;58.17;;;27.98;;
42964;SDS011;28604;51.204;22.552;2022-11-13T04:49:23;58.15;;;26.98;;
42964;SDS011;28604;51.204;22.552;2022-11-13T04:52:07;64.03;;;28.85;;
42964;SDS011;28604;51.204;22.552;2022-11-13T04:54:52;64.40;;;27.92;;
42964;SDS011;28604;51.204;22.552;2022-11-13T04:57:36;48.67;;;25.02;;
42964;SDS011;28604;51.204;22.552;2022-11-13T05:00:21;54.88;;;26.27;;
42964;SDS011;28604;51.204;22.552;2022-11-13T05:03:06;61.95;;;28.23;;
42964;SDS011;28604;51.204;22.552;2022-11-13T05:05:50;56.20;;;27.08;;
42964;SDS011;28604;51.204;22.552;2022-11-13T05:08:35;56.53;;;26.38;;
42964;SDS011;28604;51.204;22.552;2022-11-13T05:11:19;51.90;;;25.45;;
42964;SDS011;28604;51.204;22.552;2022-11-13T05:14:04;54.40;;;25.60;;
42964;SDS011;28604;51.204;22.552;2022-11-13T05:16:48;53.65;;;25.08;;
42964;SDS011;28604;51.204;22.552;2022-11-13T05:19:34;55.75;;;24.85;;
42964;SDS011;28604;51.204;22.552;2022-11-13T05:22:19;58.50;;;25.95;;
42964;SDS011;28604;51.204;22.552;2022-11-13T05:25:03;54.40;;;24.67;;
42964;SDS011;28604;51.204;22.552;2022-11-13T05:27:47;56.85;;;25.27;;
42964;SDS011;28604;51.204;22.552;2022-11-13T05:30:32;58.10;;;27.08;;
42964;SDS011;28604;51.204;22.552;2022-11-13T05:33:16;51.85;;;25.00;;
42964;SDS011;28604;51.204;22.552;2022-11-13T05:36:02;50.00;;;21.90;;
42964;SDS011;28604;51.204;22.552;2022-11-13T05:38:48;50.83;;;24.55;;
42964;SDS011;28604;51.204;22.552;2022-11-13T05:41:33;51.88;;;24.95;;
42964;SDS011;28604;51.204;22.552;2022-11-13T05:44:17;50.67;;;24.40;;
42964;SDS011;28604;51.204;22.552;2022-11-13T05:47:05;52.35;;;23.58;;
42964;SDS011;28604;51.204;22.552;2022-11-13T05:49:49;51.17;;;22.85;;
42964;SDS011;28604;51.204;22.552;2022-11-13T05:52:34;49.67;;;23.08;;
42964;SDS011;28604;51.204;22.552;2022-11-13T05:55:18;52.53;;;23.52;;
42964;SDS011;28604;51.204;22.552;2022-11-13T05:58:03;46.15;;;23.33;;
42964;SDS011;28604;51.204;22.552;2022-11-13T06:00:47;56.55;;;23.40;;
42964;SDS011;28604;51.204;22.552;2022-11-13T06:03:32;52.08;;;24.08;;
42964;SDS011;28604;51.204;22.552;2022-11-13T06:06:17;47.63;;;23.45;;
42964;SDS011;28604;51.204;22.552;2022-11-13T06:09:04;46.72;;;22.25;;
42964;SDS011;28604;51.204;22.552;2022-11-13T06:11:49;49.50;;;23.00;;
42964;SDS011;28604;51.204;22.552;2022-11-13T06:14:33;49.63;;;23.52;;
42964;SDS011;28604;51.204;22.552;2022-11-13T06:17:17;44.65;;;21.40;;
42964;SDS011;28604;51.204;22.552;2022-11-13T06:20:02;50.42;;;23.00;;
42964;SDS011;28604;51.204;22.552;2022-11-13T06:22:47;51.30;;;22.23;;
42964;SDS011;28604;51.204;22.552;2022-11-13T06:25:32;51.25;;;23.77;;
42964;SDS011;28604;51.204;22.552;2022-11-13T06:28:16;43.65;;;21.65;;
42964;SDS011;28604;51.204;22.552;2022-11-13T06:31:01;50.72;;;21.77;;
42964;SDS011;28604;51.204;22.552;2022-11-13T06:33:47;48.00;;;23.20;;
42964;SDS011;28604;51.204;22.552;2022-11-13T06:36:34;50.85;;;23.80;;
42964;SDS011;28604;51.204;22.552;2022-11-13T06:39:20;51.35;;;23.35;;
42964;SDS011;28604;51.204;22.552;2022-11-13T06:42:04;47.80;;;22.70;;
42964;SDS011;28604;51.204;22.552;2022-11-13T06:44:48;44.17;;;21.55;;
42964;SDS011;28604;51.204;22.552;2022-11-13T06:47:33;47.17;;;22.30;;
42964;SDS011;28604;51.204;22.552;2022-11-13T06:50:17;43.40;;;21.20;;
42964;SDS011;28604;51.204;22.552;2022-11-13T06:53:02;44.97;;;20.98;;
42964;SDS011;28604;51.204;22.552;2022-11-13T06:55:47;45.03;;;21.35;;
42964;SDS011;28604;51.204;22.552;2022-11-13T06:58:33;45.47;;;20.80;;
42964;SDS011;28604;51.204;22.552;2022-11-13T07:01:18;42.30;;;21.15;;
42964;SDS011;28604;51.204;22.552;2022-11-13T07:04:05;45.65;;;20.92;;
42964;SDS011;28604;51.204;22.552;2022-11-13T07:06:52;43.90;;;20.75;;
42964;SDS011;28604;51.204;22.552;2022-11-13T07:09:37;48.88;;;21.75;;
42964;SDS011;28604;51.204;22.552;2022-11-13T07:12:21;39.83;;;21.20;;
42964;SDS011;28604;51.204;22.552;2022-11-13T07:15:05;45.88;;;21.92;;
42964;SDS011;28604;51.204;22.552;2022-11-13T07:17:51;45.65;;;21.25;;
42964;SDS011;28604;51.204;22.552;2022-11-13T07:20:35;42.92;;;21.65;;
42964;SDS011;28604;51.204;22.552;2022-11-13T07:23:20;45.53;;;21.70;;
42964;SDS011;28604;51.204;22.552;2022-11-13T07:26:04;45.53;;;21.85;;
42964;SDS011;28604;51.204;22.552;2022-11-13T07:28:49;41.97;;;20.13;;
42964;SDS011;28604;51.204;22.552;2022-11-13T07:31:33;42.33;;;21.63;;
42964;SDS011;28604;51.204;22.552;2022-11-13T07:34:17;37.95;;;19.17;;
42964;SDS011;28604;51.204;22.552;2022-11-13T07:37:02;44.47;;;20.63;;
42964;SDS011;28604;51.204;22.552;2022-11-13T07:39:49;39.08;;;19.13;;
42964;SDS011;28604;51.204;22.552;2022-11-13T07:42:34;44.33;;;20.27;;
42964;SDS011;28604;51.204;22.552;2022-11-13T07:45:18;39.88;;;19.60;;
42964;SDS011;28604;51.204;22.552;2022-11-13T07:48:03;39.20;;;20.40;;
42964;SDS011;28604;51.204;22.552;2022-11-13T07:50:48;38.95;;;20.38;;
42964;SDS011;28604;51.204;22.552;2022-11-13T07:53:34;37.97;;;18.40;;
42964;SDS011;28604;51.204;22.552;2022-11-13T07:56:18;40.17;;;19.85;;
42964;SDS011;28604;51.204;22.552;2022-11-13T07:59:06;36.88;;;19.52;;
42964;SDS011;28604;51.204;22.552;2022-11-13T08:01:50;35.67;;;18.13;;
42964;SDS011;28604;51.204;22.552;2022-11-13T08:04:34;35.20;;;17.45;;
42964;SDS011;28604;51.204;22.552;2022-11-13T08:07:19;28.98;;;16.50;;
42964;SDS011;28604;51.204;22.552;2022-11-13T08:10:03;35.33;;;17.77;;
42964;SDS011;28604;51.204;22.552;2022-11-13T08:12:48;38.47;;;19.40;;
42964;SDS011;28604;51.204;22.552;2022-11-13T08:15:40;36.58;;;18.30;;
42964;SDS011;28604;51.204;22.552;2022-11-13T08:18:25;37.30;;;19.35;;
42964;SDS011;28604;51.204;22.552;2022-11-13T08:21:11;32.05;;;17.17;;
42964;SDS011;28604;51.204;22.552;2022-11-13T08:23:55;33.58;;;16.73;;
42964;SDS011;28604;51.204;22.552;2022-11-13T08:26:40;32.45;;;16.48;;
42964;SDS011;28604;51.204;22.552;2022-11-13T08:29:24;32.75;;;15.73;;
42964;SDS011;28604;51.204;22.552;2022-11-13T08:32:08;29.10;;;16.33;;
42964;SDS011;28604;51.204;22.552;2022-11-13T08:34:53;26.58;;;14.98;;
42964;SDS011;28604;51.204;22.552;2022-11-13T08:37:37;30.05;;;15.55;;
42964;SDS011;28604;51.204;22.552;2022-11-13T08:40:22;30.30;;;15.68;;
42964;SDS011;28604;51.204;22.552;2022-11-13T08:43:07;31.38;;;14.70;;
42964;SDS011;28604;51.204;22.552;2022-11-13T08:45:51;24.92;;;13.15;;
42964;SDS011;28604;51.204;22.552;2022-11-13T08:48:36;23.95;;;13.38;;
42964;SDS011;28604;51.204;22.552;2022-11-13T08:51:21;24.90;;;13.23;;
42964;SDS011;28604;51.204;22.552;2022-11-13T08:54:06;25.25;;;13.63;;
42964;SDS011;28604;51.204;22.552;2022-11-13T08:56:50;24.83;;;13.98;;
42964;SDS011;28604;51.204;22.552;2022-11-13T08:59:34;28.25;;;14.73;;
42964;SDS011;28604;51.204;22.552;2022-11-13T09:02:19;26.60;;;14.70;;
42964;SDS011;28604;51.204;22.552;2022-11-13T09:05:03;25.33;;;14.45;;
42964;SDS011;28604;51.204;22.552;2022-11-13T09:07:48;25.60;;;14.18;;
42964;SDS011;28604;51.204;22.552;2022-11-13T09:10:33;25.35;;;13.90;;
42964;SDS011;28604;51.204;22.552;2022-11-13T09:13:17;26.20;;;13.65;;
42964;SDS011;28604;51.204;22.552;2022-11-13T09:16:01;25.75;;;14.30;;
42964;SDS011;28604;51.204;22.552;2022-11-13T09:18:49;27.30;;;13.68;;
42964;SDS011;28604;51.204;22.552;2022-11-13T09:21:35;24.13;;;13.63;;
42964;SDS011;28604;51.204;22.552;2022-11-13T09:24:19;22.63;;;13.30;;
42964;SDS011;28604;51.204;22.552;2022-11-13T09:27:03;23.13;;;13.57;;
42964;SDS011;28604;51.204;22.552;2022-11-13T09:29:48;26.55;;;13.13;;
42964;SDS011;28604;51.204;22.552;2022-11-13T09:32:32;23.20;;;12.50;;
42964;SDS011;28604;51.204;22.552;2022-11-13T09:35:16;20.08;;;12.02;;
42964;SDS011;28604;51.204;22.552;2022-11-13T09:38:16;22.20;;;12.30;;
42964;SDS011;28604;51.204;22.552;2022-11-13T09:41:05;22.98;;;12.75;;
42964;SDS011;28604;51.204;22.552;2022-11-13T09:43:54;22.90;;;12.57;;
42964;SDS011;28604;51.204;22.552;2022-11-13T09:46:42;23.08;;;12.23;;
42964;SDS011;28604;51.204;22.552;2022-11-13T09:49:52;27.38;;;13.07;;
42964;SDS011;28604;51.204;22.552;2022-11-13T09:52:47;26.27;;;13.45;;
42964;SDS011;28604;51.204;22.552;2022-11-13T09:55:34;25.13;;;13.15;;
42964;SDS011;28604;51.204;22.552;2022-11-13T10:01:22;18.23;;;10.02;;
42964;SDS011;28604;51.204;22.552;2022-11-13T10:04:23;15.85;;;9.15;;
42964;SDS011;28604;51.204;22.552;2022-11-13T10:07:23;17.45;;;9.52;;
42964;SDS011;28604;51.204;22.552;2022-11-13T10:13:00;15.90;;;8.48;;
42964;SDS011;28604;51.204;22.552;2022-11-13T10:15:47;16.30;;;10.15;;
42964;SDS011;28604;51.204;22.552;2022-11-13T10:18:36;14.10;;;8.95;;
42964;SDS011;28604;51.204;22.552;2022-11-13T10:21:28;14.95;;;9.30;;
42964;SDS011;28604;51.204;22.552;2022-11-13T10:24:21;14.27;;;7.88;;
42964;SDS011;28604;51.204;22.552;2022-11-13T10:27:10;14.07;;;7.80;;
42964;SDS011;28604;51.204;22.552;2022-11-13T10:29:56;13.18;;;7.43;;
42964;SDS011;28604;51.204;22.552;2022-11-13T10:32:49;8.35;;;5.68;;
42964;SDS011;28604;51.204;22.552;2022-11-13T10:38:27;7.75;;;5.40;;
42964;SDS011;28604;51.204;22.552;2022-11-13T10:41:21;8.23;;;5.63;;
42964;SDS011;28604;51.204;22.552;2022-11-13T10:49:54;11.55;;;5.97;;
42964;SDS011;28604;51.204;22.552;2022-11-13T10:52:43;8.10;;;5.95;;
42964;SDS011;28604;51.204;22.552;2022-11-13T10:58:21;8.50;;;6.35;;
42964;SDS011;28604;51.204;22.552;2022-11-13T11:01:22;8.60;;;6.07;;
42964;SDS011;28604;51.204;22.552;2022-11-13T11:04:11;7.07;;;4.93;;
42964;SDS011;28604;51.204;22.552;2022-11-13T11:07:03;9.93;;;6.35;;
42964;SDS011;28604;51.204;22.552;2022-11-13T11:13:20;12.57;;;7.30;;
42964;SDS011;28604;51.204;22.552;2022-11-13T11:16:06;8.98;;;6.65;;
42964;SDS011;28604;51.204;22.552;2022-11-13T11:18:59;9.43;;;6.07;;
42964;SDS011;28604;51.204;22.552;2022-11-13T11:21:45;16.02;;;8.95;;
42964;SDS011;28604;51.204;22.552;2022-11-13T11:24:34;20.35;;;12.93;;
42964;SDS011;28604;51.204;22.552;2022-11-13T11:27:32;26.00;;;14.18;;
42964;SDS011;28604;51.204;22.552;2022-11-13T11:30:21;13.00;;;8.20;;
42964;SDS011;28604;51.204;22.552;2022-11-13T11:33:17;9.07;;;6.03;;
42964;SDS011;28604;51.204;22.552;2022-11-13T11:36:17;7.88;;;5.53;;
42964;SDS011;28604;51.204;22.552;2022-11-13T11:46:13;8.35;;;5.97;;
42964;SDS011;28604;51.204;22.552;2022-11-13T11:49:07;7.65;;;4.93;;
42964;SDS011;28604;51.204;22.552;2022-11-13T11:55:04;6.35;;;3.45;;
42964;SDS011;28604;51.204;22.552;2022-11-13T12:01:11;5.93;;;3.95;;
42964;SDS011;28604;51.204;22.552;2022-11-13T12:07:27;9.15;;;4.95;;
42964;SDS011;28604;51.204;22.552;2022-11-13T12:20:08;3.58;;;3.22;;
42964;SDS011;28604;51.204;22.552;2022-11-13T12:32:10;5.55;;;3.75;;
42964;SDS011;28604;51.204;22.552;2022-11-13T12:35:18;4.53;;;3.58;;
42964;SDS011;28604;51.204;22.552;2022-11-13T12:38:11;4.85;;;3.90;;
42964;SDS011;28604;51.204;22.552;2022-11-13T12:41:26;4.95;;;4.03;;
42964;SDS011;28604;51.204;22.552;2022-11-13T12:44:27;4.57;;;3.28;;
42964;SDS011;28604;51.204;22.552;2022-11-13T12:47:13;3.92;;;3.58;;
42964;SDS011;28604;51.204;22.552;2022-11-13T12:50:04;4.30;;;2.53;;
42964;SDS011;28604;51.204;22.552;2022-11-13T12:53:06;2.60;;;2.25;;
42964;SDS011;28604;51.204;22.552;2022-11-13T12:55:59;2.70;;;2.23;;
42964;SDS011;28604;51.204;22.552;2022-11-13T12:58:53;8.38;;;3.55;;
42964;SDS011;28604;51.204;22.552;2022-11-13T13:01:42;4.45;;;3.42;;
42964;SDS011;28604;51.204;22.552;2022-11-13T13:13:46;5.25;;;3.30;;
42964;SDS011;28604;51.204;22.552;2022-11-13T13:16:32;3.92;;;3.50;;
42964;SDS011;28604;51.204;22.552;2022-11-13T13:19:28;6.32;;;4.10;;
42964;SDS011;28604;51.204;22.552;2022-11-13T13:22:35;6.50;;;4.10;;
42964;SDS011;28604;51.204;22.552;2022-11-13T13:25:26;8.70;;;4.78;;
42964;SDS011;28604;51.204;22.552;2022-11-13T13:28:19;6.35;;;4.07;;
42964;SDS011;28604;51.204;22.552;2022-11-13T13:37:32;4.97;;;3.78;;
42964;SDS011;28604;51.204;22.552;2022-11-13T13:40:27;6.80;;;4.35;;
42964;SDS011;28604;51.204;22.552;2022-11-13T13:46:28;6.40;;;4.55;;
42964;SDS011;28604;51.204;22.552;2022-11-13T13:49:17;9.88;;;5.60;;
42964;SDS011;28604;51.204;22.552;2022-11-13T13:52:03;8.00;;;5.53;;
42964;SDS011;28604;51.204;22.552;2022-11-13T13:54:48;10.50;;;6.57;;
42964;SDS011;28604;51.204;22.552;2022-11-13T13:57:33;14.80;;;7.38;;
42964;SDS011;28604;51.204;22.552;2022-11-13T14:00:23;10.85;;;7.32;;
42964;SDS011;28604;51.204;22.552;2022-11-13T14:03:19;10.45;;;6.68;;
42964;SDS011;28604;51.204;22.552;2022-11-13T14:06:22;12.38;;;8.18;;
42964;SDS011;28604;51.204;22.552;2022-11-13T14:09:08;11.15;;;7.50;;
42964;SDS011;28604;51.204;22.552;2022-11-13T14:11:57;13.77;;;6.93;;
42964;SDS011;28604;51.204;22.552;2022-11-13T14:14:44;14.52;;;8.23;;
42964;SDS011;28604;51.204;22.552;2022-11-13T14:17:28;10.23;;;5.88;;
42964;SDS011;28604;51.204;22.552;2022-11-13T14:20:15;6.63;;;5.10;;
42964;SDS011;28604;51.204;22.552;2022-11-13T14:22:59;9.43;;;7.30;;
42964;SDS011;28604;51.204;22.552;2022-11-13T14:25:45;14.32;;;8.30;;
42964;SDS011;28604;51.204;22.552;2022-11-13T14:28:31;11.68;;;8.38;;
42964;SDS011;28604;51.204;22.552;2022-11-13T14:31:17;16.83;;;9.68;;
42964;SDS011;28604;51.204;22.552;2022-11-13T14:34:13;11.68;;;7.97;;
42964;SDS011;28604;51.204;22.552;2022-11-13T14:37:36;15.60;;;8.38;;
42964;SDS011;28604;51.204;22.552;2022-11-13T14:43:07;13.13;;;8.80;;
42964;SDS011;28604;51.204;22.552;2022-11-13T14:46:01;13.70;;;8.45;;
42964;SDS011;28604;51.204;22.552;2022-11-13T14:48:51;14.15;;;8.35;;
42964;SDS011;28604;51.204;22.552;2022-11-13T14:51:37;14.95;;;8.80;;
42964;SDS011;28604;51.204;22.552;2022-11-13T14:54:30;14.45;;;8.60;;
42964;SDS011;28604;51.204;22.552;2022-11-13T14:57:18;15.52;;;10.45;;
42964;SDS011;28604;51.204;22.552;2022-11-13T15:00:10;14.13;;;8.05;;
42964;SDS011;28604;51.204;22.552;2022-11-13T15:02:56;11.38;;;7.88;;
42964;SDS011;28604;51.204;22.552;2022-11-13T15:05:41;19.10;;;9.88;;
42964;SDS011;28604;51.204;22.552;2022-11-13T15:08:25;21.02;;;10.93;;
42964;SDS011;28604;51.204;22.552;2022-11-13T15:11:15;22.35;;;10.52;;
42964;SDS011;28604;51.204;22.552;2022-11-13T15:14:01;26.83;;;13.05;;
42964;SDS011;28604;51.204;22.552;2022-11-13T15:16:46;27.58;;;13.52;;
42964;SDS011;28604;51.204;22.552;2022-11-13T15:19:33;19.23;;;11.55;;
42964;SDS011;28604;51.204;22.552;2022-11-13T15:22:20;17.67;;;9.95;;
42964;SDS011;28604;51.204;22.552;2022-11-13T15:25:08;15.05;;;8.45;;
42964;SDS011;28604;51.204;22.552;2022-11-13T15:28:00;14.60;;;7.78;;
42964;SDS011;28604;51.204;22.552;2022-11-13T15:30:44;10.88;;;7.05;;
42964;SDS011;28604;51.204;22.552;2022-11-13T15:33:29;7.90;;;5.88;;
42964;SDS011;28604;51.204;22.552;2022-11-13T15:36:13;10.35;;;6.95;;
42964;SDS011;28604;51.204;22.552;2022-11-13T15:38:58;13.05;;;7.70;;
42964;SDS011;28604;51.204;22.552;2022-11-13T15:41:44;14.20;;;7.93;;
42964;SDS011;28604;51.204;22.552;2022-11-13T15:44:30;14.75;;;7.80;;
42964;SDS011;28604;51.204;22.552;2022-11-13T15:50:12;12.43;;;7.13;;
42964;SDS011;28604;51.204;22.552;2022-11-13T15:52:56;11.10;;;7.20;;
42964;SDS011;28604;51.204;22.552;2022-11-13T15:55:41;14.70;;;7.85;;
42964;SDS011;28604;51.204;22.552;2022-11-13T15:58:25;15.43;;;8.63;;
42964;SDS011;28604;51.204;22.552;2022-11-13T16:01:14;13.27;;;7.70;;
42964;SDS011;28604;51.204;22.552;2022-11-13T16:03:59;9.98;;;6.47;;
42964;SDS011;28604;51.204;22.552;2022-11-13T16:06:45;13.43;;;6.57;;
42964;SDS011;28604;51.204;22.552;2022-11-13T16:09:31;13.43;;;6.95;;
42964;SDS011;28604;51.204;22.552;2022-11-13T16:15:12;11.05;;;7.30;;
42964;SDS011;28604;51.204;22.552;2022-11-13T16:17:57;12.68;;;6.72;;
42964;SDS011;28604;51.204;22.552;2022-11-13T16:20:43;9.13;;;6.78;;
42964;SDS011;28604;51.204;22.552;2022-11-13T16:23:28;9.38;;;6.43;;
42964;SDS011;28604;51.204;22.552;2022-11-13T16:26:17;16.58;;;7.18;;
42964;SDS011;28604;51.204;22.552;2022-11-13T16:29:09;20.25;;;9.35;;
42964;SDS011;28604;51.204;22.552;2022-11-13T16:32:01;10.02;;;6.57;;
42964;SDS011;28604;51.204;22.552;2022-11-13T16:34:46;21.05;;;7.97;;
42964;SDS011;28604;51.204;22.552;2022-11-13T16:37:31;11.30;;;7.38;;
42964;SDS011;28604;51.204;22.552;2022-11-13T16:40:23;14.63;;;8.98;;
42964;SDS011;28604;51.204;22.552;2022-11-13T16:43:09;13.00;;;8.02;;
42964;SDS011;28604;51.204;22.552;2022-11-13T16:45:54;14.80;;;9.70;;
42964;SDS011;28604;51.204;22.552;2022-11-13T16:48:40;22.45;;;12.30;;
42964;SDS011;28604;51.204;22.552;2022-11-13T16:51:25;14.70;;;9.95;;
42964;SDS011;28604;51.204;22.552;2022-11-13T16:54:09;18.05;;;9.55;;
42964;SDS011;28604;51.204;22.552;2022-11-13T16:56:54;16.05;;;10.30;;
42964;SDS011;28604;51.204;22.552;2022-11-13T16:59:38;16.60;;;9.27;;
42964;SDS011;28604;51.204;22.552;2022-11-13T17:02:23;15.88;;;10.10;;
42964;SDS011;28604;51.204;22.552;2022-11-13T17:05:11;16.42;;;10.05;;
42964;SDS011;28604;51.204;22.552;2022-11-13T17:07:57;19.85;;;11.45;;
42964;SDS011;28604;51.204;22.552;2022-11-13T17:10:43;13.57;;;9.43;;
42964;SDS011;28604;51.204;22.552;2022-11-13T17:13:27;24.88;;;14.55;;
42964;SDS011;28604;51.204;22.552;2022-11-13T17:16:12;23.00;;;13.38;;
42964;SDS011;28604;51.204;22.552;2022-11-13T17:19:06;21.05;;;12.30;;
42964;SDS011;28604;51.204;22.552;2022-11-13T17:21:55;19.75;;;13.68;;
42964;SDS011;28604;51.204;22.552;2022-11-13T17:24:39;19.75;;;12.38;;
42964;SDS011;28604;51.204;22.552;2022-11-13T17:27:24;17.50;;;11.15;;
42964;SDS011;28604;51.204;22.552;2022-11-13T17:30:11;18.50;;;11.50;;
42964;SDS011;28604;51.204;22.552;2022-11-13T17:32:56;17.00;;;11.25;;